Aérodrome :
LOGIN :

S'inscrire | Disclaimer

   EN    FR    IT 

 










Légende :    VFR   VFR Marginal   IFR   IFR Intensif   IFR Très Intensif
Visi : 
Plafond : 
>= 8 km
>= 3000ft
5 à 8 km
1000 à 3000 ft
1500m à 5 km
500 à 1000 ft
800 à 1500m
200 à 500 ft
< 800m
< 200 ft
Symboles :   Orages  Brouillard  Fortes neiges  Fortes précipitations  Vent > 20 kt
SIGMETs :   Divers  Orages  Givrage  Turbulence  Onde Orograph.  Cendres Volcan.






- Altitude de l'aérodrome : 779 ft
- Code IATA : CMF


LFLB - Chambery / Aix-Les-Bains

DERNIER METAR :
  • 170500Z AUTO 19004KT 160V230 CAVOK 16/14 Q1014 NOSIG

METARs EXPIRÉS :
  • 170430Z AUTO VRB02KT CAVOK 15/13 Q1014 NOSIG
  • 170400Z AUTO 18003KT CAVOK 16/13 Q1014 TEMPO FEW070TCU
  • 170330Z AUTO 18004KT CAVOK 16/13 Q1014 TEMPO FEW070TCU
  • 170300Z AUTO VRB02KT CAVOK 17/13 Q1014
  • 170230Z AUTO 19006KT 160V230 CAVOK 18/13 Q1014
  • 170200Z AUTO 20005KT 160V220 CAVOK 18/13 Q1014
  • 170130Z AUTO 20006KT 170V230 CAVOK 18/14 Q1014
  • 170100Z AUTO 20005KT 160V220 CAVOK 18/13 Q1014
  • 170030Z AUTO 20006KT 180V240 CAVOK 19/13 Q1014
  • 170000Z AUTO 19008KT CAVOK 19/13 Q1013

TAF TAF LFLB
Valide du 17 à 03h jusqu'au 18 à 03h UTC


170200Z 1703/1803 VRB05KT CAVOK
PROB30 1703/1705 FEW070TCU
BECMG 1706/1708 36008KT
BECMG 1718/1720 VRB02KT



MET'MAP, la Météo Aéronautique d'un coup d'oeil ! - Copyright ORBIFLY Décembre 2007 - Disclaimer

ORBIFLY MET'MAP TEAM :

Programmation & Développement : Alexandra Zaïnal
Sur une idée originale de : Baudouin d'Aumeries
Soutien technique & logistique : Manuel Goepfert
Assistance : Marc-Olivier Méhu




SOURCES & CREDITS :

   NOAA